Time;durP1;ratioP1;P1;durP2;ratioP2;P2;SDS_P1;SDS_P2;PMS_P1;PMS_P2;Temp;Humidity;BMP_temperature;BMP_pressure;BME280_temperature;BME280_humidity;BME280_pressure;Samples;Min_cycle;Max_cycle;Signal;HPM_P1;HPM_P2
2024/01/11 00:00:29;;;;;;;12.10;8.40;;;;;;;20.56;25.70;102106.09;103655;1285;61365;-78
2024/01/11 00:02:55;;;;;;;12.30;8.20;;;;;;;20.57;25.56;102106.73;103424;1283;62427;-78
2024/01/11 00:05:21;;;;;;;11.00;8.30;;;;;;;20.56;25.78;102100.32;103443;1283;61303;-77
2024/01/11 00:07:48;;;;;;;11.10;8.00;;;;;;;20.56;25.70;102100.52;103836;1283;61387;-80
2024/01/11 00:10:14;;;;;;;11.30;7.80;;;;;;;20.56;25.71;102098.73;103354;1283;61352;-78
2024/01/11 00:12:40;;;;;;;11.40;8.20;;;;;;;20.57;25.76;102096.73;103608;1283;61498;-80
2024/01/11 00:15:06;;;;;;;10.90;7.70;;;;;;;20.57;25.62;102097.11;103740;1283;72685;-78
2024/01/11 00:17:32;;;;;;;13.60;8.40;;;;;;;20.57;25.79;102095.13;103601;1281;61383;-79
2024/01/11 00:19:58;;;;;;;11.00;8.00;;;;;;;20.57;25.69;102094.23;103558;1283;61404;-80
2024/01/11 00:22:24;;;;;;;10.50;7.70;;;;;;;20.57;25.77;102090.29;103753;1283;62564;-79
2024/01/11 00:24:49;;;;;;;12.00;8.60;;;;;;;20.57;25.69;102088.86;103736;1285;61768;-82
2024/01/11 00:27:15;;;;;;;11.90;8.30;;;;;;;20.56;25.67;102089.96;103742;1286;61384;-78
2024/01/11 00:29:41;;;;;;;14.40;8.70;;;;;;;20.57;25.58;102094.92;103549;1283;74428;-78
2024/01/11 00:32:07;;;;;;;11.20;8.40;;;;;;;20.57;25.75;102096.52;103591;1283;61384;-78
2024/01/11 00:34:33;;;;;;;11.40;8.50;;;;;;;20.57;25.59;102090.63;103497;1283;62103;-78
2024/01/11 00:36:59;;;;;;;10.70;8.50;;;;;;;20.57;25.58;102088.85;103752;1283;61368;-79
2024/01/11 00:39:25;;;;;;;10.80;8.30;;;;;;;20.57;25.64;102089.72;103565;1283;62438;-79
2024/01/11 00:41:52;;;;;;;12.40;8.00;;;;;;;20.58;25.63;102092.21;103586;1283;61363;-79
2024/01/11 00:44:18;;;;;;;12.40;8.40;;;;;;;20.57;25.44;102090.08;103541;1283;61355;-80
2024/01/11 00:46:44;;;;;;;11.80;8.50;;;;;;;20.57;25.50;102084.91;103579;1283;62643;-79
2024/01/11 00:49:10;;;;;;;12.00;8.20;;;;;;;20.58;25.57;102081.31;103580;1283;62257;-79
2024/01/11 00:51:36;;;;;;;11.00;8.10;;;;;;;20.57;25.63;102075.08;103738;1283;73364;-79
2024/01/11 00:54:02;;;;;;;12.70;8.50;;;;;;;20.57;25.52;102070.25;103590;1282;61445;-77
2024/01/11 00:56:28;;;;;;;12.50;8.70;;;;;;;20.57;25.66;102070.05;103516;1283;61355;-79
2024/01/11 00:58:53;;;;;;;12.00;8.60;;;;;;;20.57;25.54;102061.85;103605;1283;62533;-78
2024/01/11 01:01:19;;;;;;;14.40;8.80;;;;;;;20.57;25.57;102059.16;103786;1283;61394;-79
2024/01/11 01:03:45;;;;;;;12.90;8.70;;;;;;;20.57;25.54;102055.02;103649;1287;61868;-78
2024/01/11 01:06:11;;;;;;;12.20;8.60;;;;;;;20.58;25.46;102053.92;103656;1284;61326;-80
2024/01/11 01:08:36;;;;;;;11.50;8.40;;;;;;;20.57;25.43;102044.11;103589;1283;61410;-80
2024/01/11 01:11:03;;;;;;;12.20;8.70;;;;;;;20.58;25.42;102043.38;103608;1287;62810;-78
2024/01/11 01:13:28;;;;;;;13.50;8.30;;;;;;;20.58;25.47;102040.18;103444;1282;61288;-78
2024/01/11 01:15:54;;;;;;;12.80;8.60;;;;;;;20.58;25.51;102041.23;103784;1283;61294;-79
2024/01/11 01:18:20;;;;;;;12.20;8.80;;;;;;;20.58;25.35;102040.70;103603;1283;62662;-78
2024/01/11 01:20:46;;;;;;;11.90;8.20;;;;;;;20.58;25.40;102037.64;103609;1283;61423;-80
2024/01/11 01:23:11;;;;;;;12.00;8.90;;;;;;;20.58;25.53;102030.66;103422;1288;72208;-78
2024/01/11 01:25:37;;;;;;;11.50;8.80;;;;;;;20.58;25.41;102029.75;103582;1283;61846;-80
2024/01/11 01:28:03;;;;;;;11.70;8.80;;;;;;;20.58;25.50;102020.29;103758;1285;62547;-79
2024/01/11 01:30:29;;;;;;;12.40;8.80;;;;;;;20.59;25.41;102015.98;103596;1283;61384;-79
2024/01/11 01:32:55;;;;;;;13.30;9.40;;;;;;;20.59;25.34;102010.60;103547;1283;61414;-79
2024/01/11 01:35:20;;;;;;;12.30;8.80;;;;;;;20.59;25.34;102013.25;103840;1283;61660;-78
2024/01/11 01:37:46;;;;;;;12.70;8.20;;;;;;;20.59;25.49;102007.01;103556;1282;75451;-78
2024/01/11 01:40:12;;;;;;;11.30;8.90;;;;;;;20.59;25.34;102006.27;103607;1283;62646;-78
2024/01/11 01:42:43;;;;;;;13.80;9.20;;;;;;;20.59;25.48;101998.59;103449;1288;61442;-79
2024/01/11 01:45:09;;;;;;;12.90;8.60;;;;;;;20.60;25.33;101994.98;103453;1283;73402;-78
2024/01/11 01:47:35;;;;;;;11.60;8.60;;;;;;;20.60;25.45;101986.22;103421;1283;62955;-78
2024/01/11 01:50:01;;;;;;;11.20;8.60;;;;;;;20.60;25.45;101982.28;103407;1288;61339;-78
2024/01/11 01:52:27;;;;;;;13.10;9.00;;;;;;;20.60;25.26;101976.02;103452;1283;61314;-79
2024/01/11 01:54:52;;;;;;;12.00;8.90;;;;;;;20.60;25.24;101972.63;103563;1282;61386;-78
2024/01/11 01:57:19;;;;;;;12.70;8.50;;;;;;;20.60;25.48;101969.95;103434;1288;61395;-79
2024/01/11 01:59:45;;;;;;;12.60;9.50;;;;;;;20.61;25.36;101965.98;103754;1283;62636;-78
2024/01/11 02:02:11;;;;;;;12.20;9.10;;;;;;;20.61;25.22;101960.06;103768;1283;62438;-78
2024/01/11 02:04:37;;;;;;;11.40;8.20;;;;;;;20.61;25.25;101958.64;103775;1283;61348;-78
2024/01/11 02:07:03;;;;;;;12.10;9.20;;;;;;;20.61;25.34;101950.77;103278;1289;62672;-78
2024/01/11 02:09:29;;;;;;;13.70;9.00;;;;;;;20.61;25.22;101946.81;103423;1283;61289;-79
2024/01/11 02:11:55;;;;;;;13.20;9.10;;;;;;;20.62;25.21;101940.02;103442;1288;61463;-79
2024/01/11 02:14:21;;;;;;;13.10;8.70;;;;;;;20.61;25.34;101930.36;103554;1283;62419;-78
2024/01/11 02:16:47;;;;;;;12.10;8.60;;;;;;;20.62;25.30;101926.21;103739;1285;61336;-78
2024/01/11 02:19:13;;;;;;;12.40;8.50;;;;;;;20.62;25.19;101925.34;103599;1283;61543;-78
2024/01/11 02:21:38;;;;;;;11.70;8.90;;;;;;;20.62;25.16;101921.76;103799;1282;73597;-78
2024/01/11 02:24:05;;;;;;;11.90;8.60;;;;;;;20.62;25.30;101920.30;103627;1283;62066;-78
2024/01/11 02:26:30;;;;;;;12.20;8.80;;;;;;;20.62;25.24;101917.45;103341;1291;61572;-78
2024/01/11 02:28:56;;;;;;;12.20;8.70;;;;;;;20.62;25.18;101909.58;103565;1288;61336;-78
2024/01/11 02:31:22;;;;;;;12.60;8.70;;;;;;;20.63;25.15;101907.05;103635;1286;62333;-77
2024/01/11 02:33:47;;;;;;;10.60;7.90;;;;;;;20.62;25.23;101907.77;103427;1283;62254;-78
2024/01/11 02:36:13;;;;;;;11.30;8.30;;;;;;;20.63;25.14;101902.94;103583;1282;61298;-77
2024/01/11 02:38:39;;;;;;;11.20;8.40;;;;;;;20.62;25.22;101896.33;103575;1283;61454;-81
2024/01/11 02:41:05;;;;;;;11.40;7.90;;;;;;;20.62;25.22;101891.52;103765;1283;61388;-79
2024/01/11 02:43:31;;;;;;;12.80;8.80;;;;;;;20.62;25.22;101885.61;103458;1288;61374;-78
2024/01/11 02:45:58;;;;;;;12.30;8.60;;;;;;;20.62;25.09;101882.38;103725;1283;61900;-80
2024/01/11 02:48:28;;;;;;;11.10;8.20;;;;;;;20.62;25.12;101879.70;103449;1286;61913;-78
2024/01/11 02:50:54;;;;;;;11.90;8.40;;;;;;;20.63;25.07;101881.30;103645;1283;72530;-79
2024/01/11 02:53:20;;;;;;;13.50;8.60;;;;;;;20.63;25.20;101877.72;103569;1283;62161;-78
2024/01/11 02:55:45;;;;;;;10.80;8.20;;;;;;;20.63;25.05;101876.28;103412;1283;62013;-80
2024/01/11 02:58:11;;;;;;;10.90;8.80;;;;;;;20.62;25.16;101875.58;103767;1283;62527;-78
2024/01/11 03:00:37;;;;;;;11.10;8.50;;;;;;;20.63;25.19;101876.27;103831;1283;61726;-79
2024/01/11 03:03:03;;;;;;;11.80;8.90;;;;;;;20.62;25.08;101876.83;103623;1288;61819;-78
2024/01/11 03:05:28;;;;;;;12.20;8.50;;;;;;;20.63;25.23;101874.84;103601;1284;74453;-78
2024/01/11 03:07:54;;;;;;;11.60;8.60;;;;;;;20.63;25.16;101873.95;103589;1284;62727;-78
2024/01/11 03:10:20;;;;;;;10.50;8.20;;;;;;;20.63;24.94;101868.75;103602;1283;61464;-79
2024/01/11 03:12:46;;;;;;;11.20;8.30;;;;;;;20.63;25.19;101868.20;103389;1286;61562;-78
2024/01/11 03:15:12;;;;;;;9.60;7.80;;;;;;;20.63;25.18;101867.33;103575;1288;61378;-79
2024/01/11 03:17:38;;;;;;;10.60;8.20;;;;;;;20.63;25.12;101866.07;103358;1283;61400;-78
2024/01/11 03:20:05;;;;;;;12.10;8.70;;;;;;;20.63;25.14;101870.36;103803;1285;62560;-78
2024/01/11 03:22:31;;;;;;;11.30;8.20;;;;;;;20.63;25.15;101868.38;103558;1283;61299;-79
2024/01/11 03:24:57;;;;;;;11.60;8.80;;;;;;;20.63;25.11;101862.30;103562;1283;61885;-79
2024/01/11 03:27:23;;;;;;;12.40;8.20;;;;;;;20.63;25.14;101860.20;103641;1283;61308;-78
2024/01/11 03:29:49;;;;;;;10.00;8.10;;;;;;;20.63;25.08;101861.25;103657;1282;62608;-78
2024/01/11 03:32:15;;;;;;;11.10;8.40;;;;;;;20.63;25.12;101859.82;103776;1283;62597;-77
2024/01/11 03:34:41;;;;;;;12.40;8.30;;;;;;;20.64;25.18;101854.95;103565;1287;61348;-79
2024/01/11 03:37:07;;;;;;;10.50;8.30;;;;;;;20.63;25.07;101851.02;103423;1284;61484;-79
2024/01/11 03:39:34;;;;;;;10.40;8.60;;;;;;;20.64;24.99;101845.65;103584;1283;61368;-79
2024/01/11 03:42:00;;;;;;;12.50;8.70;;;;;;;20.64;25.05;101845.98;103521;1283;61344;-79
2024/01/11 03:44:25;;;;;;;11.60;8.30;;;;;;;20.64;25.06;101843.11;103475;1286;61481;-78
2024/01/11 03:46:51;;;;;;;10.90;7.90;;;;;;;20.64;24.98;101844.75;103594;1288;72381;-77
2024/01/11 03:49:17;;;;;;;11.70;8.60;;;;;;;20.64;24.98;101843.11;103564;1288;61363;-79
2024/01/11 03:51:44;;;;;;;12.20;8.60;;;;;;;20.65;24.95;101844.88;103605;1284;62553;-79
2024/01/11 03:54:10;;;;;;;12.90;8.50;;;;;;;20.64;24.94;101847.39;103768;1283;61409;-78
2024/01/11 03:56:39;;;;;;;11.80;8.60;;;;;;;20.65;24.84;101842.02;103563;1283;62516;-79
2024/01/11 03:59:06;;;;;;;12.40;8.60;;;;;;;20.64;24.96;101837.91;103560;1288;75298;-79
2024/01/11 04:01:32;;;;;;;12.60;8.50;;;;;;;20.64;25.00;101832.92;103826;1283;62493;-78
2024/01/11 04:03:58;;;;;;;11.70;8.50;;;;;;;20.65;24.96;101830.92;103831;1283;61269;-79
2024/01/11 04:06:24;;;;;;;11.50;8.50;;;;;;;20.64;24.89;101825.22;103760;1283;62581;-77
2024/01/11 04:08:50;;;;;;;10.90;8.40;;;;;;;20.64;25.09;101823.45;103771;1285;61337;-79
2024/01/11 04:11:17;;;;;;;12.40;8.50;;;;;;;20.64;25.01;101822.89;103292;1283;62177;-79
2024/01/11 04:13:43;;;;;;;12.50;9.10;;;;;;;20.64;24.88;101822.35;103861;1282;62721;-79
2024/01/11 04:16:08;;;;;;;12.50;8.70;;;;;;;20.65;24.89;101823.77;103572;1283;61350;-80
2024/01/11 04:18:34;;;;;;;13.00;8.70;;;;;;;20.65;24.87;101822.84;103427;1288;61393;-78
2024/01/11 04:21:00;;;;;;;11.30;8.40;;;;;;;20.65;24.84;101818.58;103457;1283;63161;-79
2024/01/11 04:23:25;;;;;;;10.90;8.20;;;;;;;20.65;24.98;101813.91;103557;1283;61369;-79
2024/01/11 04:25:51;;;;;;;10.70;8.40;;;;;;;20.65;24.95;101812.67;103644;1283;61435;-78
2024/01/11 04:28:17;;;;;;;12.90;8.30;;;;;;;20.65;24.86;101811.95;103783;1283;62532;-79
2024/01/11 04:30:43;;;;;;;12.40;8.20;;;;;;;20.65;24.78;101812.83;103412;1288;61388;-79
2024/01/11 04:33:10;;;;;;;14.70;8.70;;;;;;;20.65;24.88;101809.27;103617;1283;62148;-78
2024/01/11 04:35:36;;;;;;;11.90;8.50;;;;;;;20.65;24.86;101809.09;103634;1283;61404;-78
2024/01/11 04:38:02;;;;;;;13.20;8.70;;;;;;;20.65;24.90;101812.32;103587;1283;62547;-78
2024/01/11 04:40:28;;;;;;;12.30;9.00;;;;;;;20.64;24.83;101811.83;103598;1283;61362;-77
2024/01/11 04:42:54;;;;;;;12.40;8.70;;;;;;;20.64;24.82;101811.46;103793;1283;61651;-78
2024/01/11 04:45:19;;;;;;;11.30;8.60;;;;;;;20.64;24.94;101815.55;103551;1283;62001;-80
2024/01/11 04:47:45;;;;;;;12.10;9.20;;;;;;;20.65;24.78;101815.00;103817;1283;61877;-78
2024/01/11 04:50:11;;;;;;;14.40;9.60;;;;;;;20.65;24.72;101814.65;103635;1288;61315;-79
2024/01/11 04:52:36;;;;;;;14.20;9.60;;;;;;;20.63;24.74;101814.20;103587;1287;61685;-78
2024/01/11 04:55:02;;;;;;;12.50;9.20;;;;;;;20.63;24.68;101815.29;103591;1283;61320;-79
2024/01/11 04:57:28;;;;;;;13.00;9.20;;;;;;;20.62;24.75;101810.30;103812;1283;61407;-79
2024/01/11 04:59:53;;;;;;;12.90;9.50;;;;;;;20.61;24.52;101813.20;103771;1283;62485;-79
2024/01/11 05:02:22;;;;;;;13.20;9.90;;;;;;;20.60;24.68;101810.05;103588;1288;61320;-78
2024/01/11 05:04:48;;;;;;;13.00;9.60;;;;;;;20.59;24.42;101809.52;103588;1283;74311;-79
2024/01/11 05:07:14;;;;;;;13.90;9.30;;;;;;;20.58;24.39;101804.58;103970;1283;61377;-78
2024/01/11 05:09:40;;;;;;;12.90;9.20;;;;;;;20.58;24.27;101804.23;104016;1287;61279;-79
2024/01/11 05:12:06;;;;;;;13.30;9.70;;;;;;;20.57;24.30;101802.52;104083;1283;63520;-78
2024/01/11 05:14:31;;;;;;;13.10;9.70;;;;;;;20.56;24.24;101804.54;103718;1291;62149;-78
2024/01/11 05:16:57;;;;;;;15.20;9.60;;;;;;;20.56;24.20;101802.05;103681;1285;61572;-78
2024/01/11 05:19:23;;;;;;;12.10;9.90;;;;;;;20.56;24.13;101804.55;103581;1290;61467;-79
2024/01/11 05:21:48;;;;;;;13.90;9.90;;;;;;;20.56;24.14;101800.63;103536;1285;61574;-77
2024/01/11 05:24:14;;;;;;;13.70;9.80;;;;;;;20.55;23.96;101801.22;103439;1288;61337;-79
2024/01/11 05:26:40;;;;;;;13.50;9.60;;;;;;;20.54;24.19;101797.34;103690;1285;63023;-78
2024/01/11 05:29:05;;;;;;;12.90;9.70;;;;;;;20.54;23.92;101795.75;103370;1292;62899;-78
2024/01/11 05:31:31;;;;;;;13.80;9.90;;;;;;;20.52;23.82;101793.48;103352;1288;61820;-78
2024/01/11 05:33:57;;;;;;;12.70;9.30;;;;;;;20.52;23.93;101799.21;103338;1286;62329;-78
2024/01/11 05:36:23;;;;;;;13.90;10.10;;;;;;;20.50;23.83;101801.30;103299;1293;61489;-79
2024/01/11 05:38:50;;;;;;;16.30;11.30;;;;;;;20.46;23.65;101801.15;103333;1285;61343;-78
2024/01/11 05:41:15;;;;;;;15.80;11.70;;;;;;;20.41;23.58;101798.89;103327;1291;61544;-78
2024/01/11 05:43:42;;;;;;;18.00;12.70;;;;;;;20.37;23.50;101799.66;103367;1286;62150;-79
2024/01/11 05:46:10;;;;;;;17.40;12.30;;;;;;;20.32;23.18;101792.97;104020;1283;62090;-78
2024/01/11 05:48:36;;;;;;;16.50;13.00;;;;;;;20.25;23.14;101789.55;104620;1283;61375;-80
2024/01/11 05:51:02;;;;;;;18.40;12.80;;;;;;;20.19;23.03;101790.39;104640;1286;61826;-79
2024/01/11 05:53:27;;;;;;;17.10;12.00;;;;;;;20.14;22.81;101791.38;104650;1283;61352;-79
2024/01/11 05:55:53;;;;;;;15.80;12.70;;;;;;;20.09;22.77;101789.66;105100;1285;61378;-82
2024/01/11 05:58:19;;;;;;;17.70;12.00;;;;;;;20.03;22.75;101790.30;104789;1283;61383;-80
2024/01/11 06:00:46;;;;;;;18.10;11.30;;;;;;;19.98;22.75;101790.38;104485;1280;61267;-79
2024/01/11 06:03:12;;;;;;;17.50;11.90;;;;;;;19.94;22.81;101790.77;104654;1283;63506;-80
2024/01/11 06:05:39;;;;;;;19.60;12.70;;;;;;;19.89;22.89;101787.61;104996;1283;61263;-79
2024/01/11 06:08:05;;;;;;;17.90;12.60;;;;;;;19.86;22.83;101785.83;105291;1282;61263;-79
2024/01/11 06:10:31;;;;;;;19.40;12.50;;;;;;;19.85;22.81;101784.46;105310;1283;61223;-78
2024/01/11 06:12:57;;;;;;;17.10;12.00;;;;;;;19.84;22.74;101783.95;105242;1285;61289;-80
2024/01/11 06:15:23;;;;;;;20.40;12.30;;;;;;;19.83;22.63;101783.46;105009;1283;61266;-80
2024/01/11 06:17:49;;;;;;;37.80;12.50;;;;;;;19.82;22.69;101781.38;105075;1287;61358;-83
2024/01/11 06:20:15;;;;;;;33.90;12.90;;;;;;;19.83;22.68;101780.27;105190;1282;61434;-81
2024/01/11 06:22:41;;;;;;;39.10;13.10;;;;;;;19.85;23.01;101780.12;105288;1283;61362;-80
2024/01/11 06:25:07;;;;;;;35.00;12.70;;;;;;;19.88;23.24;101781.45;105097;1284;61385;-80
2024/01/11 06:27:33;;;;;;;29.80;12.20;;;;;;;19.87;23.96;101779.52;105040;1283;61446;-81
2024/01/11 06:29:59;;;;;;;27.70;12.10;;;;;;;19.86;24.38;101779.21;105095;1283;61403;-81
2024/01/11 06:32:24;;;;;;;24.10;12.10;;;;;;;19.83;24.77;101780.06;105407;1285;74086;-80
2024/01/11 06:34:50;;;;;;;19.50;12.40;;;;;;;19.80;25.04;101777.88;105064;1282;61347;-81
2024/01/11 06:37:15;;;;;;;26.60;12.40;;;;;;;19.77;25.47;101772.14;105218;1283;61498;-79
2024/01/11 06:39:41;;;;;;;20.70;12.40;;;;;;;19.74;25.59;101771.36;105066;1282;61369;-77
2024/01/11 06:42:07;;;;;;;19.40;12.60;;;;;;;19.73;25.65;101772.66;105164;1283;61296;-79
2024/01/11 06:44:32;;;;;;;21.70;13.10;;;;;;;19.75;25.61;101772.77;105389;1285;61314;-79
2024/01/11 06:46:58;;;;;;;18.50;12.20;;;;;;;19.78;25.66;101774.58;105359;1282;59984;-78
2024/01/11 06:49:24;;;;;;;19.80;12.20;;;;;;;19.81;25.71;101772.84;105236;1284;61989;-78
2024/01/11 06:51:50;;;;;;;19.00;12.10;;;;;;;19.83;25.77;101770.80;105323;1283;61170;-77
2024/01/11 06:54:15;;;;;;;19.10;10.90;;;;;;;19.85;25.60;101775.88;104887;1283;61269;-77
2024/01/11 06:56:41;;;;;;;22.10;10.60;;;;;;;19.86;25.80;101772.58;105347;1286;61246;-78
2024/01/11 06:59:07;;;;;;;18.80;11.00;;;;;;;19.90;26.03;101775.23;105241;1283;61422;-78
2024/01/11 07:01:33;;;;;;;21.00;10.70;;;;;;;19.93;26.26;101777.05;105358;1285;62295;-79
2024/01/11 07:03:58;;;;;;;19.30;11.30;;;;;;;19.95;26.36;101770.20;105095;1283;61347;-78
2024/01/11 07:06:24;;;;;;;26.00;10.80;;;;;;;19.97;26.38;101771.17;105127;1286;61778;-79
2024/01/11 07:08:50;;;;;;;21.50;11.30;;;;;;;19.98;26.56;101772.88;105586;1283;61344;-79
2024/01/11 07:11:15;;;;;;;21.60;10.80;;;;;;;19.99;26.46;101773.36;105383;1282;59561;-79
2024/01/11 07:13:42;;;;;;;18.50;10.40;;;;;;;20.00;26.46;101769.23;105109;1286;61515;-79
2024/01/11 07:16:09;;;;;;;22.20;11.30;;;;;;;20.00;26.45;101766.87;104946;1286;72560;-79
2024/01/11 07:18:34;;;;;;;26.90;10.60;;;;;;;20.02;26.32;101764.67;105132;1289;62140;-80
2024/01/11 07:21:00;;;;;;;24.80;11.10;;;;;;;20.02;26.26;101760.36;104980;1289;59847;-79
2024/01/11 07:23:27;;;;;;;19.50;10.80;;;;;;;20.02;26.37;101755.89;105000;1291;61329;-80
2024/01/11 07:25:52;;;;;;;17.10;10.90;;;;;;;20.04;26.25;101753.27;104985;1290;59447;-79
2024/01/11 07:28:19;;;;;;;20.50;10.60;;;;;;;20.08;26.17;101753.09;105275;1285;61371;-79
2024/01/11 07:30:46;;;;;;;25.40;10.30;;;;;;;20.12;26.06;101746.97;104838;1291;63277;-79
2024/01/11 07:33:11;;;;;;;17.60;10.50;;;;;;;20.15;25.90;101742.33;104971;1290;61538;-80
2024/01/11 07:35:37;;;;;;;16.10;9.70;;;;;;;20.19;26.04;101741.06;105223;1290;61363;-78
2024/01/11 07:38:03;;;;;;;15.00;9.90;;;;;;;20.23;26.07;101740.49;104725;1289;623505;-78
2024/01/11 07:40:29;;;;;;;15.30;9.80;;;;;;;20.26;26.03;101739.41;105038;1290;74414;-77
2024/01/11 07:42:55;;;;;;;21.30;9.90;;;;;;;20.29;26.14;101727.30;105096;1289;61544;-78
2024/01/11 07:45:21;;;;;;;17.50;9.60;;;;;;;20.32;26.12;101726.06;105205;1285;61394;-78
2024/01/11 07:47:47;;;;;;;17.70;9.40;;;;;;;20.35;26.09;101718.77;105630;1283;61289;-79
2024/01/11 07:50:13;;;;;;;19.20;9.70;;;;;;;20.37;26.26;101717.90;105319;1283;59680;-79
2024/01/11 07:52:39;;;;;;;23.10;10.30;;;;;;;20.40;26.29;101714.75;105539;1285;61390;-79
2024/01/11 07:55:08;;;;;;;19.10;9.00;;;;;;;20.42;26.29;101710.84;105387;1286;60042;-79
2024/01/11 07:57:37;;;;;;;22.00;9.50;;;;;;;20.44;26.54;101711.12;105706;1282;61230;-80
2024/01/11 08:00:06;;;;;;;17.80;8.80;;;;;;;20.46;26.79;101705.83;105237;1288;71217;-79
2024/01/11 08:02:32;;;;;;;22.60;8.90;;;;;;;20.48;27.00;101703.57;105462;1283;73507;-80
2024/01/11 08:04:59;;;;;;;17.70;8.80;;;;;;;20.50;27.10;101693.44;105502;1283;61198;-80
2024/01/11 08:07:28;;;;;;;18.00;9.40;;;;;;;20.53;27.35;101694.91;105271;1283;61152;-80
2024/01/11 08:09:54;;;;;;;19.60;8.70;;;;;;;20.54;27.36;101695.73;105187;1285;72481;-79
2024/01/11 08:12:20;;;;;;;22.70;9.30;;;;;;;20.55;27.40;101696.39;105347;1283;61359;-80
2024/01/11 08:14:47;;;;;;;18.80;9.40;;;;;;;20.57;27.39;101688.95;105417;1284;62436;-81
2024/01/11 08:17:16;;;;;;;15.90;9.10;;;;;;;20.59;27.64;101687.79;105637;1282;61305;-79
2024/01/11 08:19:44;;;;;;;14.50;8.50;;;;;;;20.60;27.76;101687.88;105190;1283;72500;-79
2024/01/11 08:22:10;;;;;;;23.70;8.90;;;;;;;20.63;27.89;101698.14;104962;1284;74694;-79
2024/01/11 08:24:37;;;;;;;23.40;8.20;;;;;;;20.66;27.92;101698.71;105435;1283;61340;-78
2024/01/11 08:27:04;;;;;;;24.50;8.30;;;;;;;20.68;28.22;101698.20;105324;1286;61281;-78
2024/01/11 08:29:29;;;;;;;19.90;8.70;;;;;;;20.71;28.31;101695.02;105543;1285;59321;-78
2024/01/11 08:31:56;;;;;;;23.70;9.00;;;;;;;20.74;28.51;101696.81;105318;1283;61356;-79
2024/01/11 08:34:22;;;;;;;17.70;8.10;;;;;;;20.77;28.57;101694.33;105465;1283;61323;-78
2024/01/11 08:36:47;;;;;;;14.80;7.70;;;;;;;20.80;28.86;101684.16;105376;1283;59468;-79
2024/01/11 08:39:16;;;;;;;21.50;8.60;;;;;;;20.84;28.88;101685.16;105304;1283;61399;-78
2024/01/11 08:41:42;;;;;;;15.50;7.60;;;;;;;20.86;29.22;101682.55;105103;1281;74015;-78
2024/01/11 08:44:08;;;;;;;16.10;7.60;;;;;;;20.89;29.27;101679.02;105315;1286;61339;-78
2024/01/11 08:46:40;;;;;;;14.20;7.80;;;;;;;20.91;29.51;101672.96;105152;1288;61232;-78
2024/01/11 08:49:06;;;;;;;16.90;7.50;;;;;;;20.93;29.71;101670.17;105408;1283;59816;-79
2024/01/11 08:51:34;;;;;;;14.30;8.10;;;;;;;20.95;29.87;101667.55;105607;1282;60752;-78
2024/01/11 08:54:01;;;;;;;;;;;;;;;20.97;29.86;101663.36;105270;1286;61178;-77
2024/01/11 08:56:27;;;;;;;18.90;8.40;;;;;;;20.94;29.72;101656.16;105181;1283;60037;-78
2024/01/11 08:58:53;;;;;;;28.30;8.70;;;;;;;20.95;29.70;101648.79;105430;1285;61208;-79
2024/01/11 09:01:19;;;;;;;29.20;8.70;;;;;;;20.95;29.87;101645.58;105244;1287;61309;-79
2024/01/11 09:03:45;;;;;;;47.50;9.60;;;;;;;20.95;30.06;101642.69;105215;1283;63016;-78
2024/01/11 09:06:12;;;;;;;23.30;8.30;;;;;;;20.95;30.22;101639.45;105277;1285;61457;-78
2024/01/11 09:08:37;;;;;;;25.90;8.80;;;;;;;20.95;30.23;101632.30;105555;1282;61131;-79
2024/01/11 09:11:03;;;;;;;17.70;8.10;;;;;;;20.95;30.18;101628.02;105242;1283;61499;-78
2024/01/11 09:13:29;;;;;;;21.90;8.10;;;;;;;20.95;30.07;101627.11;105281;1282;61313;-77
2024/01/11 09:15:54;;;;;;;21.70;8.30;;;;;;;20.96;30.05;101624.91;105208;1283;61327;-79
2024/01/11 09:18:20;;;;;;;22.10;8.00;;;;;;;20.96;29.96;101626.20;105242;1281;61854;-78
2024/01/11 09:20:47;;;;;;;21.60;8.30;;;;;;;20.95;30.06;101623.17;105276;1283;61157;-78
2024/01/11 09:23:13;;;;;;;19.10;8.40;;;;;;;20.95;30.01;101622.83;105191;1287;61346;-80
2024/01/11 09:25:39;;;;;;;19.00;7.70;;;;;;;20.96;30.05;101618.50;105415;1282;59905;-79
2024/01/11 09:28:05;;;;;;;21.90;8.10;;;;;;;20.96;30.04;101609.55;105557;1285;59726;-79
2024/01/11 09:30:31;;;;;;;13.60;7.30;;;;;;;20.96;30.03;101600.77;105633;1283;62273;-79
2024/01/11 09:32:56;;;;;;;23.40;8.40;;;;;;;20.97;30.00;101597.50;105620;1286;59772;-79
2024/01/11 09:35:25;;;;;;;22.80;8.30;;;;;;;20.97;29.94;101596.75;105316;1286;62508;-79
2024/01/11 09:37:51;;;;;;;17.20;8.20;;;;;;;20.97;29.89;101592.27;105362;1283;61257;-78
2024/01/11 09:40:20;;;;;;;14.30;8.10;;;;;;;20.97;29.80;101586.91;105354;1284;60085;-80
2024/01/11 09:42:45;;;;;;;16.90;8.40;;;;;;;20.97;29.64;101575.84;105163;1286;72649;-80
2024/01/11 09:45:18;;;;;;;15.90;8.80;;;;;;;20.95;29.47;101573.59;105384;1285;61426;-79
2024/01/11 09:47:47;;;;;;;16.30;8.00;;;;;;;20.94;29.34;101568.13;105442;1283;61247;-79
2024/01/11 09:50:19;;;;;;;18.60;8.60;;;;;;;20.92;29.40;101565.02;105417;1286;61911;-81
2024/01/11 09:52:48;;;;;;;19.00;9.40;;;;;;;20.84;29.26;101558.71;105398;1283;72784;-80
2024/01/11 09:55:16;;;;;;;27.90;9.60;;;;;;;20.78;29.15;101554.73;105174;1288;73355;-80
2024/01/11 09:57:44;;;;;;;25.50;9.70;;;;;;;20.72;29.05;101546.67;105387;1283;61209;-79
2024/01/11 10:00:10;;;;;;;27.60;10.30;;;;;;;20.60;28.74;101541.97;105271;1284;61313;-79
2024/01/11 10:02:36;;;;;;;38.00;9.40;;;;;;;20.47;28.30;101530.00;105612;1286;59588;-79
2024/01/11 10:05:03;;;;;;;24.70;10.00;;;;;;;20.36;28.11;101523.87;105389;1285;62340;-79
2024/01/11 10:07:29;;;;;;;19.80;9.90;;;;;;;20.29;28.00;101516.18;105503;1283;59991;-79
2024/01/11 10:09:54;;;;;;;17.80;9.00;;;;;;;20.19;27.59;101512.10;105607;1283;59905;-81
2024/01/11 10:12:23;;;;;;;18.00;8.90;;;;;;;20.06;27.51;101510.13;105341;1289;60054;-82
2024/01/11 10:14:49;;;;;;;16.50;8.10;;;;;;;20.06;27.62;101506.23;105434;1283;61247;-81
2024/01/11 10:17:14;;;;;;;20.60;8.30;;;;;;;20.06;27.51;101499.44;105471;1286;61481;-81
2024/01/11 10:19:40;;;;;;;17.40;8.60;;;;;;;20.07;27.65;101489.52;105662;1283;60002;-80
2024/01/11 10:22:06;;;;;;;19.70;8.90;;;;;;;20.09;27.73;101480.10;105957;1285;59781;-80
2024/01/11 10:24:35;;;;;;;21.20;9.20;;;;;;;20.12;27.62;101477.13;105872;1294;60001;-80
2024/01/11 10:27:03;;;;;;;16.90;8.20;;;;;;;20.13;27.50;101467.38;105764;1286;61346;-80
2024/01/11 10:29:36;;;;;;;14.00;8.40;;;;;;;20.15;27.44;101465.54;106490;1284;60932;-82
2024/01/11 10:32:06;;;;;;;17.10;7.80;;;;;;;20.15;27.36;101462.28;106698;1282;72718;-80
2024/01/11 10:34:31;;;;;;;18.50;7.80;;;;;;;20.15;27.68;101456.41;106504;1283;75415;-81
2024/01/11 10:36:57;;;;;;;16.70;8.20;;;;;;;20.14;27.84;101450.59;106489;1282;59642;-80
2024/01/11 10:39:25;;;;;;;19.00;8.10;;;;;;;20.13;27.97;101445.09;106687;1281;59443;-80
2024/01/11 10:42:09;;;;;;;20.50;7.80;;;;;;;20.13;28.03;101438.10;106494;1283;59469;-80
2024/01/11 10:44:35;;;;;;;18.10;7.80;;;;;;;20.12;27.95;101438.35;106587;1282;74454;-80
2024/01/11 10:47:02;;;;;;;15.60;7.80;;;;;;;20.09;27.74;101431.89;106542;1288;58912;-79
2024/01/11 10:49:28;;;;;;;20.00;7.60;;;;;;;20.03;27.82;101424.01;106595;1281;60456;-80
2024/01/11 10:52:02;;;;;;;19.00;8.50;;;;;;;20.02;27.98;101414.59;106456;1283;60245;-80
2024/01/11 10:54:30;;;;;;;17.50;7.30;;;;;;;20.01;28.02;101406.96;106403;1282;74760;-79
2024/01/11 10:56:56;;;;;;;16.80;7.70;;;;;;;20.01;28.34;101406.10;106687;1283;61090;-77
2024/01/11 10:59:25;;;;;;;22.10;8.10;;;;;;;20.03;28.60;101406.34;106664;1283;59442;-80
2024/01/11 11:01:57;;;;;;;20.70;7.60;;;;;;;20.04;28.65;101400.34;106801;1284;72419;-80